Terminal Aerodrome Forecast
Issued by NWS Sioux Falls, SD

Home | Current Version | Previous Version | Graphics & Text | Print | Product List | Glossary Off
Versions: 1 2 3 4 5 6 7 8 9 10 11 12 13 14 15

000
FTUS43 KFSD 282033 AAA
TAFSUX
TAF AMD
KSUX 282033Z 2821/2918 21008KT P6SM SHRA VCTS SCT020 BKN035CB
      TEMPO 2821/2822 4SM TSRA BKN025CB
     FM282300 29011KT P6SM SHRA OVC035
     FM290300 28006KT P6SM SCT035 BKN120
     FM291000 VRB03KT 3SM BR SCT090
     FM291500 27005KT P6SM SCT030=

USA.gov is the U.S. government's official web portal to all federal, state and local government web resources and services.